sensor_id;sensor_type;location;lat;lon;timestamp;pressure;altitude;pressure_sealevel;temperature;humidity
54554;BME280;40450;55.848;-3.572;2023-04-28T00:02:16;98769.32;;;14.08;68.39
54554;BME280;40450;55.848;-3.572;2023-04-28T00:04:46;98764.99;;;14.34;67.80
54554;BME280;40450;55.848;-3.572;2023-04-28T00:07:16;98759.69;;;14.62;67.35
54554;BME280;40450;55.848;-3.572;2023-04-28T00:09:47;98756.75;;;14.72;66.64
54554;BME280;40450;55.848;-3.572;2023-04-28T00:12:17;98751.60;;;14.81;66.74
54554;BME280;40450;55.848;-3.572;2023-04-28T00:14:48;98753.32;;;14.72;66.43
54554;BME280;40450;55.848;-3.572;2023-04-28T00:17:18;98755.75;;;14.64;66.44
54554;BME280;40450;55.848;-3.572;2023-04-28T00:19:49;98756.17;;;14.43;67.10
54554;BME280;40450;55.848;-3.572;2023-04-28T00:22:20;98755.65;;;14.17;68.23
54554;BME280;40450;55.848;-3.572;2023-04-28T00:24:50;98752.77;;;14.58;67.83
54554;BME280;40450;55.848;-3.572;2023-04-28T00:27:20;98749.57;;;14.66;67.16
54554;BME280;40450;55.848;-3.572;2023-04-28T00:29:51;98745.94;;;14.99;66.61
54554;BME280;40450;55.848;-3.572;2023-04-28T00:32:21;98744.23;;;14.99;65.43
54554;BME280;40450;55.848;-3.572;2023-04-28T00:34:51;98745.27;;;15.06;64.96
54554;BME280;40450;55.848;-3.572;2023-04-28T00:37:22;98745.09;;;15.05;65.07
54554;BME280;40450;55.848;-3.572;2023-04-28T00:39:54;98745.69;;;15.19;64.94
54554;BME280;40450;55.848;-3.572;2023-04-28T00:42:23;98746.27;;;15.07;64.22
54554;BME280;40450;55.848;-3.572;2023-04-28T00:44:53;98744.84;;;15.19;64.51
54554;BME280;40450;55.848;-3.572;2023-04-28T00:47:24;98743.85;;;14.77;64.65
54554;BME280;40450;55.848;-3.572;2023-04-28T00:49:54;98743.91;;;14.75;64.77
54554;BME280;40450;55.848;-3.572;2023-04-28T00:52:25;98747.71;;;14.63;64.93
54554;BME280;40450;55.848;-3.572;2023-04-28T00:54:55;98743.10;;;14.53;65.35
54554;BME280;40450;55.848;-3.572;2023-04-28T00:57:25;98745.10;;;14.45;65.57
54554;BME280;40450;55.848;-3.572;2023-04-28T00:59:56;98745.15;;;14.67;65.57
54554;BME280;40450;55.848;-3.572;2023-04-28T01:02:26;98743.76;;;14.89;64.98
54554;BME280;40450;55.848;-3.572;2023-04-28T01:04:57;98744.80;;;15.02;64.74
54554;BME280;40450;55.848;-3.572;2023-04-28T01:07:26;98741.82;;;14.42;64.82
54554;BME280;40450;55.848;-3.572;2023-04-28T01:09:57;98739.03;;;14.62;64.63
54554;BME280;40450;55.848;-3.572;2023-04-28T01:12:27;98738.40;;;14.62;64.60
54554;BME280;40450;55.848;-3.572;2023-04-28T01:14:58;98739.86;;;15.06;64.21
54554;BME280;40450;55.848;-3.572;2023-04-28T01:17:28;98739.34;;;15.21;63.82
54554;BME280;40450;55.848;-3.572;2023-04-28T01:19:59;98737.73;;;15.26;63.43
54554;BME280;40450;55.848;-3.572;2023-04-28T01:22:29;98739.43;;;15.26;63.19
54554;BME280;40450;55.848;-3.572;2023-04-28T01:25:00;98733.47;;;15.24;62.97
54554;BME280;40450;55.848;-3.572;2023-04-28T01:27:30;98732.15;;;14.60;63.61
54554;BME280;40450;55.848;-3.572;2023-04-28T01:30:01;98728.05;;;14.72;63.81
54554;BME280;40450;55.848;-3.572;2023-04-28T01:32:31;98730.09;;;14.38;63.68
54554;BME280;40450;55.848;-3.572;2023-04-28T01:35:01;98730.53;;;14.01;64.65
54554;BME280;40450;55.848;-3.572;2023-04-28T01:37:32;98732.38;;;13.71;65.62
54554;BME280;40450;55.848;-3.572;2023-04-28T01:40:04;98736.65;;;13.09;67.54
54554;BME280;40450;55.848;-3.572;2023-04-28T01:42:32;98739.97;;;12.96;67.75
54554;BME280;40450;55.848;-3.572;2023-04-28T01:45:03;98740.99;;;12.97;67.77
54554;BME280;40450;55.848;-3.572;2023-04-28T01:47:33;98739.56;;;12.84;67.98
54554;BME280;40450;55.848;-3.572;2023-04-28T01:50:04;98738.73;;;13.20;67.67
54554;BME280;40450;55.848;-3.572;2023-04-28T01:52:34;98737.40;;;13.52;66.97
54554;BME280;40450;55.848;-3.572;2023-04-28T01:55:05;98734.81;;;13.83;66.02
54554;BME280;40450;55.848;-3.572;2023-04-28T01:57:35;98739.19;;;13.38;65.62
54554;BME280;40450;55.848;-3.572;2023-04-28T02:00:07;98738.82;;;13.31;65.78
54554;BME280;40450;55.848;-3.572;2023-04-28T02:02:36;98738.45;;;13.28;66.14
54554;BME280;40450;55.848;-3.572;2023-04-28T02:05:07;98741.92;;;13.12;66.10
54554;BME280;40450;55.848;-3.572;2023-04-28T02:07:36;98741.86;;;13.21;65.74
54554;BME280;40450;55.848;-3.572;2023-04-28T02:10:08;98740.57;;;12.98;65.72
54554;BME280;40450;55.848;-3.572;2023-04-28T02:12:37;98742.02;;;12.84;65.68
54554;BME280;40450;55.848;-3.572;2023-04-28T02:15:08;98742.63;;;13.08;65.30
54554;BME280;40450;55.848;-3.572;2023-04-28T02:17:38;98736.82;;;13.22;65.42
54554;BME280;40450;55.848;-3.572;2023-04-28T02:20:09;98740.97;;;13.11;64.73
54554;BME280;40450;55.848;-3.572;2023-04-28T02:22:38;98740.20;;;12.63;65.88
54554;BME280;40450;55.848;-3.572;2023-04-28T02:25:09;98736.11;;;12.84;66.25
54554;BME280;40450;55.848;-3.572;2023-04-28T02:27:39;98734.08;;;12.35;66.48
54554;BME280;40450;55.848;-3.572;2023-04-28T02:30:10;98734.07;;;11.73;69.21
54554;BME280;40450;55.848;-3.572;2023-04-28T02:32:40;98732.27;;;12.01;67.78
54554;BME280;40450;55.848;-3.572;2023-04-28T02:35:11;98735.02;;;11.57;69.51
54554;BME280;40450;55.848;-3.572;2023-04-28T02:37:41;98736.44;;;11.03;71.50
54554;BME280;40450;55.848;-3.572;2023-04-28T02:40:12;98732.13;;;11.94;69.58
54554;BME280;40450;55.848;-3.572;2023-04-28T02:42:42;98732.05;;;12.04;68.67
54554;BME280;40450;55.848;-3.572;2023-04-28T02:45:13;98731.33;;;11.28;70.38
54554;BME280;40450;55.848;-3.572;2023-04-28T02:47:44;98731.13;;;11.91;69.12
54554;BME280;40450;55.848;-3.572;2023-04-28T02:50:14;98729.58;;;12.01;68.68
54554;BME280;40450;55.848;-3.572;2023-04-28T02:52:44;98734.61;;;12.63;67.45
54554;BME280;40450;55.848;-3.572;2023-04-28T02:55:14;98736.77;;;12.67;67.51
54554;BME280;40450;55.848;-3.572;2023-04-28T02:57:45;98736.39;;;13.11;66.49
54554;BME280;40450;55.848;-3.572;2023-04-28T03:00:16;98737.30;;;12.45;66.10
54554;BME280;40450;55.848;-3.572;2023-04-28T03:02:47;98736.53;;;11.90;67.84
54554;BME280;40450;55.848;-3.572;2023-04-28T03:05:17;98737.05;;;12.02;67.97
54554;BME280;40450;55.848;-3.572;2023-04-28T03:07:47;98736.49;;;12.17;67.74
54554;BME280;40450;55.848;-3.572;2023-04-28T03:10:17;98738.85;;;12.60;67.54
54554;BME280;40450;55.848;-3.572;2023-04-28T03:12:48;98740.32;;;12.44;66.75
54554;BME280;40450;55.848;-3.572;2023-04-28T03:15:19;98742.33;;;12.46;66.56
54554;BME280;40450;55.848;-3.572;2023-04-28T03:17:50;98739.61;;;12.37;66.41
54554;BME280;40450;55.848;-3.572;2023-04-28T03:20:20;98740.40;;;12.06;66.94
54554;BME280;40450;55.848;-3.572;2023-04-28T03:22:51;98741.09;;;11.99;67.57
54554;BME280;40450;55.848;-3.572;2023-04-28T03:25:21;98739.27;;;12.27;67.43
54554;BME280;40450;55.848;-3.572;2023-04-28T03:27:51;98740.01;;;12.57;66.52
54554;BME280;40450;55.848;-3.572;2023-04-28T03:30:22;98733.92;;;12.25;66.60
54554;BME280;40450;55.848;-3.572;2023-04-28T03:32:52;98731.91;;;11.79;68.29
54554;BME280;40450;55.848;-3.572;2023-04-28T03:35:22;98734.75;;;11.40;69.63
54554;BME280;40450;55.848;-3.572;2023-04-28T03:37:53;98731.98;;;11.26;70.18
54554;BME280;40450;55.848;-3.572;2023-04-28T03:40:23;98730.26;;;11.26;70.49
54554;BME280;40450;55.848;-3.572;2023-04-28T03:42:54;98725.92;;;11.14;70.88
54554;BME280;40450;55.848;-3.572;2023-04-28T03:45:24;98725.41;;;10.84;71.89
54554;BME280;40450;55.848;-3.572;2023-04-28T03:47:54;98727.38;;;10.78;72.41
54554;BME280;40450;55.848;-3.572;2023-04-28T03:50:25;98732.82;;;10.72;72.32
54554;BME280;40450;55.848;-3.572;2023-04-28T03:52:55;98731.00;;;11.05;71.64
54554;BME280;40450;55.848;-3.572;2023-04-28T03:55:25;98729.05;;;11.42;70.95
54554;BME280;40450;55.848;-3.572;2023-04-28T03:57:56;98727.96;;;11.68;70.58
54554;BME280;40450;55.848;-3.572;2023-04-28T04:00:26;98728.47;;;11.88;70.29
54554;BME280;40450;55.848;-3.572;2023-04-28T04:02:57;98729.46;;;11.78;69.61
54554;BME280;40450;55.848;-3.572;2023-04-28T04:05:28;98734.65;;;11.73;69.89
54554;BME280;40450;55.848;-3.572;2023-04-28T04:07:58;98736.44;;;11.86;68.92
54554;BME280;40450;55.848;-3.572;2023-04-28T04:10:28;98737.97;;;11.72;70.01
54554;BME280;40450;55.848;-3.572;2023-04-28T04:12:59;98739.61;;;11.88;70.15
54554;BME280;40450;55.848;-3.572;2023-04-28T04:15:30;98744.54;;;11.99;70.07
54554;BME280;40450;55.848;-3.572;2023-04-28T04:18:00;98745.74;;;12.21;69.90
54554;BME280;40450;55.848;-3.572;2023-04-28T04:20:31;98742.50;;;11.86;69.77
54554;BME280;40450;55.848;-3.572;2023-04-28T04:23:01;98742.44;;;11.39;70.69
54554;BME280;40450;55.848;-3.572;2023-04-28T04:25:31;98743.50;;;11.90;70.28
54554;BME280;40450;55.848;-3.572;2023-04-28T04:28:02;98747.55;;;11.89;69.98
54554;BME280;40450;55.848;-3.572;2023-04-28T04:30:33;98747.59;;;12.31;69.25
54554;BME280;40450;55.848;-3.572;2023-04-28T04:33:03;98746.12;;;12.54;68.06
54554;BME280;40450;55.848;-3.572;2023-04-28T04:35:34;98743.41;;;12.79;68.15
54554;BME280;40450;55.848;-3.572;2023-04-28T04:38:04;98742.67;;;12.73;66.78
54554;BME280;40450;55.848;-3.572;2023-04-28T04:40:34;98742.26;;;12.93;66.85
54554;BME280;40450;55.848;-3.572;2023-04-28T04:43:05;98747.94;;;13.17;67.08
54554;BME280;40450;55.848;-3.572;2023-04-28T04:45:35;98748.67;;;13.09;66.76
54554;BME280;40450;55.848;-3.572;2023-04-28T04:48:06;98747.25;;;13.36;66.37
54554;BME280;40450;55.848;-3.572;2023-04-28T04:50:36;98748.16;;;13.59;66.20
54554;BME280;40450;55.848;-3.572;2023-04-28T04:53:06;98746.60;;;13.54;65.85
54554;BME280;40450;55.848;-3.572;2023-04-28T04:55:37;98744.95;;;13.93;65.12
54554;BME280;40450;55.848;-3.572;2023-04-28T04:58:07;98743.33;;;13.96;64.36
54554;BME280;40450;55.848;-3.572;2023-04-28T05:00:37;98744.81;;;13.84;64.21
54554;BME280;40450;55.848;-3.572;2023-04-28T05:03:07;98749.30;;;13.62;64.36
54554;BME280;40450;55.848;-3.572;2023-04-28T05:05:38;98751.55;;;13.65;64.59
54554;BME280;40450;55.848;-3.572;2023-04-28T05:08:08;98756.31;;;13.60;64.67
54554;BME280;40450;55.848;-3.572;2023-04-28T05:10:38;98758.21;;;13.15;65.51
54554;BME280;40450;55.848;-3.572;2023-04-28T05:13:09;98761.17;;;13.17;66.00
54554;BME280;40450;55.848;-3.572;2023-04-28T05:15:39;98762.74;;;13.23;65.25
54554;BME280;40450;55.848;-3.572;2023-04-28T05:18:10;98763.20;;;13.48;65.30
54554;BME280;40450;55.848;-3.572;2023-04-28T05:20:40;98768.34;;;13.36;65.48
54554;BME280;40450;55.848;-3.572;2023-04-28T05:23:11;98771.46;;;13.02;66.67
54554;BME280;40450;55.848;-3.572;2023-04-28T05:25:41;98772.78;;;13.43;66.59
54554;BME280;40450;55.848;-3.572;2023-04-28T05:28:12;98775.21;;;13.73;65.90
54554;BME280;40450;55.848;-3.572;2023-04-28T05:30:43;98777.00;;;13.73;65.09
54554;BME280;40450;55.848;-3.572;2023-04-28T05:33:13;98778.56;;;13.54;65.61
54554;BME280;40450;55.848;-3.572;2023-04-28T05:35:44;98780.44;;;13.71;65.78
54554;BME280;40450;55.848;-3.572;2023-04-28T05:38:14;98780.22;;;13.78;65.59
54554;BME280;40450;55.848;-3.572;2023-04-28T05:40:45;98782.35;;;13.85;65.78
54554;BME280;40450;55.848;-3.572;2023-04-28T05:43:15;98783.59;;;13.78;65.70
54554;BME280;40450;55.848;-3.572;2023-04-28T05:45:46;98785.88;;;13.83;65.95
54554;BME280;40450;55.848;-3.572;2023-04-28T05:48:16;98787.65;;;13.56;66.43
54554;BME280;40450;55.848;-3.572;2023-04-28T05:50:46;98785.70;;;13.47;66.44
54554;BME280;40450;55.848;-3.572;2023-04-28T05:53:17;98788.13;;;13.03;68.20
54554;BME280;40450;55.848;-3.572;2023-04-28T05:55:48;98788.55;;;12.72;69.11
54554;BME280;40450;55.848;-3.572;2023-04-28T05:58:18;98792.12;;;12.63;70.31
54554;BME280;40450;55.848;-3.572;2023-04-28T06:00:49;98795.46;;;12.97;69.59
54554;BME280;40450;55.848;-3.572;2023-04-28T06:03:19;98792.70;;;13.13;69.56
54554;BME280;40450;55.848;-3.572;2023-04-28T06:05:50;98793.21;;;13.30;69.28
54554;BME280;40450;55.848;-3.572;2023-04-28T06:08:20;98791.69;;;13.72;69.01
54554;BME280;40450;55.848;-3.572;2023-04-28T06:10:50;98791.33;;;14.11;68.16
54554;BME280;40450;55.848;-3.572;2023-04-28T06:13:20;98792.72;;;14.50;67.98
54554;BME280;40450;55.848;-3.572;2023-04-28T06:15:51;98792.61;;;14.80;66.40
54554;BME280;40450;55.848;-3.572;2023-04-28T06:18:22;98793.60;;;14.73;65.43
54554;BME280;40450;55.848;-3.572;2023-04-28T06:20:52;98796.59;;;14.76;65.38
54554;BME280;40450;55.848;-3.572;2023-04-28T06:23:22;98801.24;;;15.04;65.83
54554;BME280;40450;55.848;-3.572;2023-04-28T06:25:52;98803.99;;;15.18;64.43
54554;BME280;40450;55.848;-3.572;2023-04-28T06:28:23;98804.18;;;15.15;63.72
54554;BME280;40450;55.848;-3.572;2023-04-28T06:30:53;98803.82;;;14.81;63.60
54554;BME280;40450;55.848;-3.572;2023-04-28T06:33:23;98806.32;;;14.80;64.92
54554;BME280;40450;55.848;-3.572;2023-04-28T06:35:53;98807.21;;;14.87;64.60
54554;BME280;40450;55.848;-3.572;2023-04-28T06:38:24;98812.20;;;15.01;63.97
54554;BME280;40450;55.848;-3.572;2023-04-28T06:40:54;98813.92;;;15.07;63.01
54554;BME280;40450;55.848;-3.572;2023-04-28T06:43:25;98814.75;;;15.29;63.60
54554;BME280;40450;55.848;-3.572;2023-04-28T06:45:56;98815.85;;;15.38;63.55
54554;BME280;40450;55.848;-3.572;2023-04-28T06:48:26;98820.00;;;15.57;63.00
54554;BME280;40450;55.848;-3.572;2023-04-28T06:50:57;98823.56;;;15.74;62.28
54554;BME280;40450;55.848;-3.572;2023-04-28T06:53:27;98822.48;;;15.63;61.36
54554;BME280;40450;55.848;-3.572;2023-04-28T06:55:58;98826.47;;;15.56;61.29
54554;BME280;40450;55.848;-3.572;2023-04-28T06:58:28;98827.60;;;15.62;62.10
54554;BME280;40450;55.848;-3.572;2023-04-28T07:00:58;98829.93;;;15.69;62.45
54554;BME280;40450;55.848;-3.572;2023-04-28T07:03:28;98829.55;;;15.82;62.16
54554;BME280;40450;55.848;-3.572;2023-04-28T07:05:59;98828.62;;;15.87;61.96
54554;BME280;40450;55.848;-3.572;2023-04-28T07:08:30;98831.14;;;15.71;62.64
54554;BME280;40450;55.848;-3.572;2023-04-28T07:11:00;98836.72;;;15.82;62.63
54554;BME280;40450;55.848;-3.572;2023-04-28T07:13:31;98840.30;;;15.73;62.40
54554;BME280;40450;55.848;-3.572;2023-04-28T07:16:02;98843.48;;;15.93;62.35
54554;BME280;40450;55.848;-3.572;2023-04-28T07:18:32;98844.00;;;16.16;61.95
54554;BME280;40450;55.848;-3.572;2023-04-28T07:21:03;98843.31;;;16.20;61.84
54554;BME280;40450;55.848;-3.572;2023-04-28T07:23:33;98847.38;;;16.29;61.53
54554;BME280;40450;55.848;-3.572;2023-04-28T07:26:04;98846.19;;;16.05;61.67
54554;BME280;40450;55.848;-3.572;2023-04-28T07:28:35;98855.21;;;15.94;61.80
54554;BME280;40450;55.848;-3.572;2023-04-28T07:31:05;98858.10;;;15.82;60.81
54554;BME280;40450;55.848;-3.572;2023-04-28T07:33:35;98859.28;;;15.67;62.40
54554;BME280;40450;55.848;-3.572;2023-04-28T07:36:06;98860.63;;;16.26;61.66
54554;BME280;40450;55.848;-3.572;2023-04-28T07:38:36;98861.28;;;16.22;60.80
54554;BME280;40450;55.848;-3.572;2023-04-28T07:41:07;98868.59;;;15.26;63.76
54554;BME280;40450;55.848;-3.572;2023-04-28T07:43:37;98875.60;;;14.97;64.76
54554;BME280;40450;55.848;-3.572;2023-04-28T07:46:07;98877.91;;;15.49;63.43
54554;BME280;40450;55.848;-3.572;2023-04-28T07:48:37;98880.52;;;15.97;63.76
54554;BME280;40450;55.848;-3.572;2023-04-28T07:51:08;98877.92;;;16.14;60.30
54554;BME280;40450;55.848;-3.572;2023-04-28T07:53:38;98878.84;;;16.22;60.55
54554;BME280;40450;55.848;-3.572;2023-04-28T07:56:09;98880.73;;;15.51;62.29
54554;BME280;40450;55.848;-3.572;2023-04-28T07:58:39;98891.85;;;12.40;71.98
54554;BME280;40450;55.848;-3.572;2023-04-28T08:01:10;98889.87;;;14.49;66.94
54554;BME280;40450;55.848;-3.572;2023-04-28T08:03:40;98890.89;;;15.01;64.52
54554;BME280;40450;55.848;-3.572;2023-04-28T08:06:11;98888.97;;;14.87;64.93
54554;BME280;40450;55.848;-3.572;2023-04-28T08:08:41;98898.53;;;12.71;71.59
54554;BME280;40450;55.848;-3.572;2023-04-28T08:11:11;98899.00;;;12.70;72.67
54554;BME280;40450;55.848;-3.572;2023-04-28T08:13:42;98899.18;;;14.35;69.25
54554;BME280;40450;55.848;-3.572;2023-04-28T08:16:13;98898.99;;;14.56;68.57
54554;BME280;40450;55.848;-3.572;2023-04-28T08:18:43;98894.93;;;15.71;64.79
54554;BME280;40450;55.848;-3.572;2023-04-28T08:21:13;98898.89;;;15.72;65.42
54554;BME280;40450;55.848;-3.572;2023-04-28T08:23:44;98899.19;;;15.26;65.85
54554;BME280;40450;55.848;-3.572;2023-04-28T08:26:14;98899.80;;;15.79;64.72
54554;BME280;40450;55.848;-3.572;2023-04-28T08:28:44;98903.48;;;16.05;65.11
54554;BME280;40450;55.848;-3.572;2023-04-28T08:31:15;98905.79;;;16.31;63.96
54554;BME280;40450;55.848;-3.572;2023-04-28T08:33:46;98907.66;;;16.72;63.50
54554;BME280;40450;55.848;-3.572;2023-04-28T08:36:16;98906.51;;;16.69;62.97
54554;BME280;40450;55.848;-3.572;2023-04-28T08:38:46;98907.73;;;15.97;63.72
54554;BME280;40450;55.848;-3.572;2023-04-28T08:41:16;98909.06;;;16.23;63.49
54554;BME280;40450;55.848;-3.572;2023-04-28T08:43:47;98910.74;;;16.43;63.08
54554;BME280;40450;55.848;-3.572;2023-04-28T08:46:17;98911.39;;;16.12;64.31
54554;BME280;40450;55.848;-3.572;2023-04-28T08:48:49;98910.14;;;16.58;64.22
54554;BME280;40450;55.848;-3.572;2023-04-28T08:51:25;98906.75;;;16.97;63.52
54554;BME280;40450;55.848;-3.572;2023-04-28T08:53:49;98911.44;;;17.03;62.74
54554;BME280;40450;55.848;-3.572;2023-04-28T08:56:22;98914.63;;;17.34;62.31
54554;BME280;40450;55.848;-3.572;2023-04-28T08:58:51;98915.10;;;16.96;61.57
54554;BME280;40450;55.848;-3.572;2023-04-28T09:01:21;98923.59;;;15.24;66.78
54554;BME280;40450;55.848;-3.572;2023-04-28T09:03:53;98930.82;;;13.70;70.84
54554;BME280;40450;55.848;-3.572;2023-04-28T09:06:22;98928.43;;;14.76;69.07
54554;BME280;40450;55.848;-3.572;2023-04-28T09:08:53;98932.90;;;12.47;75.18
54554;BME280;40450;55.848;-3.572;2023-04-28T09:11:23;98934.91;;;14.06;72.50
54554;BME280;40450;55.848;-3.572;2023-04-28T09:18:55;98935.68;;;12.72;76.40
54554;BME280;40450;55.848;-3.572;2023-04-28T09:21:25;98935.19;;;14.75;72.51
54554;BME280;40450;55.848;-3.572;2023-04-28T09:23:56;98935.33;;;15.71;68.83
54554;BME280;40450;55.848;-3.572;2023-04-28T09:26:26;98937.41;;;15.73;67.73
54554;BME280;40450;55.848;-3.572;2023-04-28T09:31:27;98946.87;;;15.55;66.78
54554;BME280;40450;55.848;-3.572;2023-04-28T09:33:58;98949.94;;;15.27;69.00
54554;BME280;40450;55.848;-3.572;2023-04-28T09:36:28;98958.92;;;14.66;69.91
54554;BME280;40450;55.848;-3.572;2023-04-28T09:38:59;98957.88;;;15.89;66.55
54554;BME280;40450;55.848;-3.572;2023-04-28T09:41:35;98962.98;;;16.33;65.78
54554;BME280;40450;55.848;-3.572;2023-04-28T09:46:30;98971.79;;;14.61;69.12
54554;BME280;40450;55.848;-3.572;2023-04-28T09:49:00;98976.33;;;14.38;69.40
54554;BME280;40450;55.848;-3.572;2023-04-28T09:51:30;98976.26;;;13.23;74.06
54554;BME280;40450;55.848;-3.572;2023-04-28T09:54:01;98980.11;;;14.72;70.84
54554;BME280;40450;55.848;-3.572;2023-04-28T09:56:33;98981.54;;;13.37;73.29
54554;BME280;40450;55.848;-3.572;2023-04-28T09:59:01;98989.56;;;11.27;80.93
54554;BME280;40450;55.848;-3.572;2023-04-28T10:01:35;98988.07;;;14.20;73.38
54554;BME280;40450;55.848;-3.572;2023-04-28T10:04:04;98991.63;;;14.07;72.90
54554;BME280;40450;55.848;-3.572;2023-04-28T10:06:33;98992.76;;;13.07;76.45
54554;BME280;40450;55.848;-3.572;2023-04-28T10:09:03;98995.27;;;14.24;74.39
54554;BME280;40450;55.848;-3.572;2023-04-28T10:11:34;98995.40;;;14.80;71.95
54554;BME280;40450;55.848;-3.572;2023-04-28T10:14:03;98990.81;;;15.84;69.29
54554;BME280;40450;55.848;-3.572;2023-04-28T10:16:34;98991.67;;;15.50;67.71
54554;BME280;40450;55.848;-3.572;2023-04-28T10:19:05;98996.19;;;16.26;68.04
54554;BME280;40450;55.848;-3.572;2023-04-28T10:21:42;99001.89;;;15.04;68.88
54554;BME280;40450;55.848;-3.572;2023-04-28T10:24:09;99004.43;;;13.01;75.49
54554;BME280;40450;55.848;-3.572;2023-04-28T10:29:05;99007.72;;;13.85;75.54
54554;BME280;40450;55.848;-3.572;2023-04-28T10:31:36;99010.67;;;12.88;77.73
54554;BME280;40450;55.848;-3.572;2023-04-28T10:36:45;99010.87;;;13.49;76.22
54554;BME280;40450;55.848;-3.572;2023-04-28T10:39:09;99011.37;;;15.40;69.87
54554;BME280;40450;55.848;-3.572;2023-04-28T10:41:39;99013.60;;;14.06;73.61
54554;BME280;40450;55.848;-3.572;2023-04-28T10:49:10;99019.35;;;14.56;72.25
54554;BME280;40450;55.848;-3.572;2023-04-28T10:51:41;99017.08;;;14.22;73.56
54554;BME280;40450;55.848;-3.572;2023-04-28T10:54:15;99020.39;;;13.42;75.09
54554;BME280;40450;55.848;-3.572;2023-04-28T11:01:43;99024.81;;;15.00;69.41
54554;BME280;40450;55.848;-3.572;2023-04-28T11:04:13;99019.02;;;15.95;68.98
54554;BME280;40450;55.848;-3.572;2023-04-28T11:06:45;99019.51;;;16.21;67.71
54554;BME280;40450;55.848;-3.572;2023-04-28T11:16:48;99024.99;;;16.17;67.53
54554;BME280;40450;55.848;-3.572;2023-04-28T11:19:19;99030.11;;;14.23;72.53
54554;BME280;40450;55.848;-3.572;2023-04-28T11:21:47;99025.66;;;15.98;69.34
54554;BME280;40450;55.848;-3.572;2023-04-28T11:24:17;99025.47;;;16.62;64.46
54554;BME280;40450;55.848;-3.572;2023-04-28T11:26:46;99027.48;;;16.48;65.47
54554;BME280;40450;55.848;-3.572;2023-04-28T11:29:16;99024.65;;;16.06;65.10
54554;BME280;40450;55.848;-3.572;2023-04-28T11:31:49;99034.73;;;14.30;72.10
54554;BME280;40450;55.848;-3.572;2023-04-28T11:34:19;99041.55;;;11.77;80.68
54554;BME280;40450;55.848;-3.572;2023-04-28T11:36:47;99042.45;;;13.22;76.54
54554;BME280;40450;55.848;-3.572;2023-04-28T11:39:26;99044.36;;;12.87;78.09
54554;BME280;40450;55.848;-3.572;2023-04-28T11:41:48;99046.24;;;12.67;77.82
54554;BME280;40450;55.848;-3.572;2023-04-28T11:44:20;99047.20;;;11.93;81.05
54554;BME280;40450;55.848;-3.572;2023-04-28T11:46:51;99049.09;;;11.47;83.20
54554;BME280;40450;55.848;-3.572;2023-04-28T11:49:20;99055.65;;;10.75;85.34
54554;BME280;40450;55.848;-3.572;2023-04-28T11:51:50;99056.62;;;11.39;84.27
54554;BME280;40450;55.848;-3.572;2023-04-28T11:54:22;99055.22;;;13.20;79.63
54554;BME280;40450;55.848;-3.572;2023-04-28T11:56:51;99067.17;;;10.29;86.53
54554;BME280;40450;55.848;-3.572;2023-04-28T11:59:23;99064.38;;;11.85;82.64
54554;BME280;40450;55.848;-3.572;2023-04-28T12:01:53;99063.26;;;13.28;79.76
54554;BME280;40450;55.848;-3.572;2023-04-28T12:04:27;99066.88;;;14.48;76.92
54554;BME280;40450;55.848;-3.572;2023-04-28T12:07:00;99072.12;;;14.34;73.52
54554;BME280;40450;55.848;-3.572;2023-04-28T12:09:22;99074.40;;;13.47;76.04
54554;BME280;40450;55.848;-3.572;2023-04-28T12:11:54;99076.65;;;13.45;79.01
54554;BME280;40450;55.848;-3.572;2023-04-28T12:14:23;99084.55;;;12.78;80.18
54554;BME280;40450;55.848;-3.572;2023-04-28T12:16:53;99084.07;;;13.36;78.63
54554;BME280;40450;55.848;-3.572;2023-04-28T12:19:23;99087.45;;;13.01;79.88
54554;BME280;40450;55.848;-3.572;2023-04-28T12:21:59;99083.65;;;13.44;79.54
54554;BME280;40450;55.848;-3.572;2023-04-28T12:24:24;99091.55;;;11.48;84.41
54554;BME280;40450;55.848;-3.572;2023-04-28T12:31:56;99098.94;;;11.46;86.84
54554;BME280;40450;55.848;-3.572;2023-04-28T12:34:26;99099.94;;;11.41;85.99
54554;BME280;40450;55.848;-3.572;2023-04-28T12:36:57;99103.23;;;9.65;90.60
54554;BME280;40450;55.848;-3.572;2023-04-28T12:39:28;99107.94;;;10.29;90.42
54554;BME280;40450;55.848;-3.572;2023-04-28T12:41:58;99111.87;;;11.23;88.86
54554;BME280;40450;55.848;-3.572;2023-04-28T12:44:32;99113.44;;;11.00;89.88
54554;BME280;40450;55.848;-3.572;2023-04-28T12:47:00;99111.48;;;11.32;90.22
54554;BME280;40450;55.848;-3.572;2023-04-28T12:49:29;99107.31;;;12.85;85.45
54554;BME280;40450;55.848;-3.572;2023-04-28T12:52:00;99105.27;;;14.53;82.86
54554;BME280;40450;55.848;-3.572;2023-04-28T12:54:30;99108.77;;;13.55;84.32
54554;BME280;40450;55.848;-3.572;2023-04-28T12:57:00;99109.57;;;13.60;82.27
54554;BME280;40450;55.848;-3.572;2023-04-28T12:59:31;99120.01;;;11.01;90.64
54554;BME280;40450;55.848;-3.572;2023-04-28T13:02:01;99120.72;;;9.28;96.20
54554;BME280;40450;55.848;-3.572;2023-04-28T13:04:32;99124.91;;;11.18;90.63
54554;BME280;40450;55.848;-3.572;2023-04-28T13:07:02;99123.57;;;10.08;93.12
54554;BME280;40450;55.848;-3.572;2023-04-28T13:09:33;99127.07;;;9.95;93.02
54554;BME280;40450;55.848;-3.572;2023-04-28T13:12:03;99125.09;;;12.04;89.24
54554;BME280;40450;55.848;-3.572;2023-04-28T13:14:33;99134.24;;;10.77;90.70
54554;BME280;40450;55.848;-3.572;2023-04-28T13:17:04;99135.04;;;11.40;88.14
54554;BME280;40450;55.848;-3.572;2023-04-28T13:19:34;99133.88;;;12.58;87.96
54554;BME280;40450;55.848;-3.572;2023-04-28T13:22:05;99135.04;;;13.79;81.80
54554;BME280;40450;55.848;-3.572;2023-04-28T13:24:35;99134.11;;;14.67;80.54
54554;BME280;40450;55.848;-3.572;2023-04-28T13:27:05;99138.31;;;15.09;79.79
54554;BME280;40450;55.848;-3.572;2023-04-28T13:29:35;99142.56;;;11.99;83.98
54554;BME280;40450;55.848;-3.572;2023-04-28T13:32:05;99137.85;;;13.47;81.34
54554;BME280;40450;55.848;-3.572;2023-04-28T13:34:36;99143.23;;;13.40;79.37
54554;BME280;40450;55.848;-3.572;2023-04-28T13:37:06;99143.36;;;13.88;79.12
54554;BME280;40450;55.848;-3.572;2023-04-28T13:39:36;99146.58;;;14.03;78.43
54554;BME280;40450;55.848;-3.572;2023-04-28T13:42:07;99145.96;;;14.56;77.23
54554;BME280;40450;55.848;-3.572;2023-04-28T13:44:37;99147.19;;;14.33;78.46